Share

Villalba, PR

Mercedita (TJPS) Elev 30 ft | 18.01 °N, 66.56 °W | Change Station

Current weather conditions updated 48 minutes ago

Partly Cloudy
Partly Cloudy
75 °F
Feels Like 75 °F
N
6
Wind Variable Wind from NE
Sunrise 6:05 AM
Sunset 6:43 PM
Moon Waning Gibbous

Tomorrow is forecast to be Cooler than today. Afternoon showers.

Pressure 30.00 in
Visibility 8.0 miles
Clouds Few 3000 ft
Dew Point 70 °F
Humidity 83%
Rainfall 0.00 in
Snow Depth Not available.
UV 0 out of 16
Pollen Not available.
Air Quality Not available.
Flu Activity Local Activity
METAR TJPS 210150Z 05005KT 8SM FEW030 24/21 A3000

More Conditions Fewer Conditions

Pressure 30.00 in
Visibility 8.0 miles
Clouds Few 3000 ft
Dew Point 70 °F
Humidity 83%
Rainfall 0.00 in
Snow Depth Not available.
UV 0 out of 16
Pollen Not available.
Air Quality Not available.
Flu Activity Local Activity
METAR TJPS 210150Z 05005KT 8SM FEW030 24/21 A3000

More Conditions Fewer Conditions

10-Day Weather Forecast

Almanac

Astronomy

Apr. 20, 2014 Rise Set
Actual Time 6:05 AM AST 6:43 PM AST
Civil Twilight 5:43 AM AST 7:06 PM AST
Nautical Twilight 5:17 AM AST 7:32 PM AST
Astronomical Twilight 4:50 AM AST 7:59 PM AST
Moon 11:58 PM AST (4/20) 10:38 AM AST (4/20)
Length of Visible Light 13h 22m
Length of Day
12h 38m
Tomorrow will be 0m 57s longer.
Waning Gibbous, 64% of the Moon is Illuminated
Today
Waning Gibbous
Apr 22
Last Quarter
Apr 29
New
May 6
First Quarter
May 14
Full

Community

  • Sun Pillar and Geese
    Sun Pillar and Geese
  • Showers on the Way
    Showers on the Way
  • Easter Morning Fog
    Easter Morning Fog
  • Easter Dance
    Easter Dance
  • spring skiing mount Baker WA
    spring skiing mount Baker WA

WunderPhotos

Upload Photos

1,703,524 photos uploaded!

WunderBlogs® & News

Nearby

Snow Depth

Station Depth Elevation
No new snow has been reported.

Coastal Water Temperatures

Place Temperature
Magueyes Islands, PR 81.0 °F
Yabucoa Harbor, PR 80.1 °F

Earthquake Activity

City Distance Mag. Time & Date
No recent earthquake activity has been reported nearby.
Minimum magnitude displayed is 2.5.

Nearby Weather Stations

Station Location Temp. Heat Index Dew Point Humidity Wind Precip. Elev Updated Type
ALBERTO-RURAL, Ponce 75.2 °F 77 °F 61 °F 62% NE  at  0.0 mph 0.00 in / hr 571 ft 7:55 PM AST Rapid Fire
MACHUELO, Ponce 77.2 °F 79 °F 70 °F 79% NW  at  4.5 mph 0.00 in / hr 128 ft 9:12 PM AST Rapid Fire
Cayey, Cayey, PR 69.0 °F - 68 °F 99% North  at  0.0 mph 0.00 in / hr 1299 ft 10:37 PM AST Rapid Fire
Farallón, Cayey 68.0 °F - 66 °F 94% North  at  0.0 mph 0.00 in / hr 1378 ft 10:37 PM AST Rapid Fire
Culebra Alto, Cayey, PR 66.0 °F - 64 °F 95% East  at  4.2 mph - / hr 2603 ft 10:31 PM AST Normal

Show More Stations Show Fewer Stations

What do you think?

We're not finished. Please let us know what you like, what you don't like, and what you are still missing.